Time;durP1;ratioP1;P1;durP2;ratioP2;P2;SDS_P1;SDS_P2;PMS_P1;PMS_P2;Temp;Humidity;BMP_temperature;BMP_pressure;BME280_temperature;BME280_humidity;BME280_pressure;Samples;Min_cycle;Max_cycle;Signal;HPM_P1;HPM_P2
2021/06/27 06:44:19;;;;;;;7.45;5.85;;;;;;;;;;5869346;23;20526;-86
2021/06/27 06:47:05;;;;;;;6.75;5.55;;;;;;;;;;4956043;28;20030;-86
2021/06/27 06:49:50;;;;;;;6.97;5.70;;;;;;;;;;4968851;28;20393;-86
2021/06/27 06:52:38;;;;;;;7.20;6.13;;;;;;;;;;4967908;28;20258;-90
2021/06/27 06:55:37;;;;;;;6.72;5.47;;;;;;;;;;4977114;28;20493;-87
2021/06/27 06:58:44;;;;;;;;;;;;;;;;;;4988479;28;20034;-91
2021/06/27 07:01:30;;;;;;;8.07;5.35;;;;;;;;;;4991508;28;19917;-89
2021/06/27 07:04:16;;;;;;;11.75;6.00;;;;;;;;;;4976075;28;20061;-90
2021/06/27 07:07:01;;;;;;;6.53;5.35;;;;;;;;;;4953950;28;20022;-87
2021/06/27 07:09:46;;;;;;;8.18;5.60;;;;;;;;;;4961758;28;20422;-89
2021/06/27 07:12:32;;;;;;;7.20;5.22;;;;;;;;;;4965837;28;20030;-88
2021/06/27 07:15:17;;;;;;;6.65;5.00;;;;;;;;;;4973340;28;20077;-90
2021/06/27 07:18:28;;;;;;;5.47;4.80;;;;;;;;;;4974088;28;20077;-89
2021/06/27 07:21:43;;;;;;;6.28;5.47;;;;;;;;;;4931824;28;20034;-90
2021/06/27 07:28:42;;;;;;;7.00;5.32;;;;;;;;;;4929023;29;20032;-90
2021/06/27 07:35:22;;;;;;;6.93;4.95;;;;;;;;;;4941179;28;20023;-88
2021/06/27 07:38:08;;;;;;;7.43;4.70;;;;;;;;;;4969782;28;20362;-88
2021/06/27 07:40:53;;;;;;;6.05;4.60;;;;;;;;;;4972217;28;20598;-89
2021/06/27 07:43:38;;;;;;;6.35;4.95;;;;;;;;;;4960083;28;20026;-89
2021/06/27 07:46:23;;;;;;;5.38;4.82;;;;;;;;;;4992196;28;20073;-88
2021/06/27 07:49:09;;;;;;;5.13;4.60;;;;;;;;;;4976725;28;20026;-89
2021/06/27 07:51:54;;;;;;;8.25;4.43;;;;;;;;;;4996131;28;20036;-89
2021/06/27 07:54:42;;;;;;;7.35;4.57;;;;;;;;;;4989150;28;20322;-88
2021/06/27 07:57:27;;;;;;;5.03;4.38;;;;;;;;;;4993676;28;20040;-87
2021/06/27 08:00:53;;;;;;;5.63;5.00;;;;;;;;;;4982292;28;20106;-90
2021/06/27 08:03:45;;;;;;;5.22;4.57;;;;;;;;;;4922728;28;20047;-88
2021/06/27 08:06:33;;;;;;;6.85;5.07;;;;;;;;;;5000805;28;20438;-88
2021/06/27 08:12:48;;;;;;;6.05;4.82;;;;;;;;;;4976604;28;20026;-86
2021/06/27 08:15:33;;;;;;;5.25;4.72;;;;;;;;;;4993110;28;20451;-85
2021/06/27 08:18:18;;;;;;;5.22;4.65;;;;;;;;;;4973706;28;20057;-84
2021/06/27 08:21:04;;;;;;;8.13;4.47;;;;;;;;;;4993694;28;20108;-86
2021/06/27 08:23:49;;;;;;;6.18;4.82;;;;;;;;;;4985948;28;20442;-85
2021/06/27 08:26:34;;;;;;;4.57;4.05;;;;;;;;;;4994453;28;20056;-85
2021/06/27 08:29:19;;;;;;;5.10;4.25;;;;;;;;;;4984913;28;20022;-85
2021/06/27 08:32:05;;;;;;;4.72;3.58;;;;;;;;;;4994283;28;20113;-86
2021/06/27 08:34:50;;;;;;;5.20;4.40;;;;;;;;;;4990980;28;20033;-85
2021/06/27 08:37:35;;;;;;;5.22;4.18;;;;;;;;;;4994190;28;20088;-84
2021/06/27 08:40:20;;;;;;;4.47;3.88;;;;;;;;;;4987728;28;20105;-84
2021/06/27 08:43:08;;;;;;;5.22;3.60;;;;;;;;;;4994100;28;20235;-84
2021/06/27 08:45:53;;;;;;;5.97;3.83;;;;;;;;;;4982206;28;20073;-84
2021/06/27 08:48:39;;;;;;;5.47;3.92;;;;;;;;;;4993719;28;20458;-85
2021/06/27 08:51:24;;;;;;;6.15;3.80;;;;;;;;;;4985577;28;20057;-85
2021/06/27 08:54:11;;;;;;;6.65;4.10;;;;;;;;;;4992850;28;20249;-85
2021/06/27 08:56:56;;;;;;;4.20;3.38;;;;;;;;;;4976321;28;20029;-85
2021/06/27 08:59:41;;;;;;;3.92;3.33;;;;;;;;;;4989814;28;20032;-85
2021/06/27 09:02:27;;;;;;;5.05;3.55;;;;;;;;;;4992761;28;20084;-87
2021/06/27 09:05:12;;;;;;;5.32;3.47;;;;;;;;;;4990357;28;20553;-85
2021/06/27 09:08:12;;;;;;;4.35;3.60;;;;;;;;;;4987015;28;20370;-86
2021/06/27 09:11:11;;;;;;;3.45;3.15;;;;;;;;;;4985047;28;20021;-86
2021/06/27 09:13:56;;;;;;;4.78;3.85;;;;;;;;;;4991246;28;20076;-86
2021/06/27 09:16:41;;;;;;;4.95;3.50;;;;;;;;;;4987943;28;20057;-89
2021/06/27 09:19:27;;;;;;;6.43;3.60;;;;;;;;;;4990378;28;20069;-89
2021/06/27 09:22:14;;;;;;;3.67;3.38;;;;;;;;;;4996370;28;20045;-86
2021/06/27 09:25:17;;;;;;;4.03;3.40;;;;;;;;;;4992778;28;20033;-87
2021/06/27 09:28:06;;;;;;;4.45;3.25;;;;;;;;;;4984713;28;20382;-86
2021/06/27 09:30:52;;;;;;;4.63;3.33;;;;;;;;;;4991882;28;20029;-85
2021/06/27 09:33:37;;;;;;;5.05;3.10;;;;;;;;;;4988946;28;20026;-85
2021/06/27 09:36:23;;;;;;;4.85;3.53;;;;;;;;;;4991221;28;20064;-84
2021/06/27 09:39:09;;;;;;;3.15;2.85;;;;;;;;;;4989812;28;20014;-88
2021/06/27 09:41:56;;;;;;;3.20;2.90;;;;;;;;;;4983522;28;20029;-87
2021/06/27 09:44:42;;;;;;;6.22;3.08;;;;;;;;;;4992745;28;20506;-84
2021/06/27 09:47:29;;;;;;;3.95;3.20;;;;;;;;;;4988011;28;20042;-85
2021/06/27 09:50:27;;;;;;;5.38;2.92;;;;;;;;;;4991142;28;20030;-83
2021/06/27 09:53:33;;;;;;;5.57;3.28;;;;;;;;;;4988445;28;20479;-85
2021/06/27 09:56:18;;;;;;;3.00;2.70;;;;;;;;;;4989082;28;20038;-84
2021/06/27 09:59:05;;;;;;;2.92;2.58;;;;;;;;;;4992315;28;20030;-82
2021/06/27 10:01:56;;;;;;;4.97;3.22;;;;;;;;;;4997410;28;20026;-88
2021/06/27 10:04:42;;;;;;;4.10;3.40;;;;;;;;;;4986846;28;20037;-86
2021/06/27 10:07:37;;;;;;;3.70;2.90;;;;;;;;;;4995722;28;20029;-88
2021/06/27 10:10:23;;;;;;;3.97;3.13;;;;;;;;;;4992448;28;20089;-88
2021/06/27 10:13:23;;;;;;;4.30;2.92;;;;;;;;;;4997504;28;20018;-88
2021/06/27 10:16:10;;;;;;;3.92;3.10;;;;;;;;;;4993997;28;20026;-86
2021/06/27 10:18:56;;;;;;;3.22;2.65;;;;;;;;;;4990654;28;20481;-89
2021/06/27 10:21:42;;;;;;;3.10;2.65;;;;;;;;;;4989708;28;20025;-87
2021/06/27 10:24:29;;;;;;;4.97;2.90;;;;;;;;;;4988475;28;20705;-88
2021/06/27 10:27:15;;;;;;;3.35;2.90;;;;;;;;;;4987748;28;20473;-88
2021/06/27 10:30:02;;;;;;;3.60;2.92;;;;;;;;;;4987408;28;20030;-89
2021/06/27 10:32:49;;;;;;;3.47;2.92;;;;;;;;;;4991409;28;20017;-87
2021/06/27 10:35:35;;;;;;;3.25;2.53;;;;;;;;;;4988995;28;20030;-89
2021/06/27 10:38:22;;;;;;;4.50;3.13;;;;;;;;;;4975890;28;20136;-89
2021/06/27 10:41:08;;;;;;;3.88;3.10;;;;;;;;;;4987911;28;20022;-89
2021/06/27 10:43:56;;;;;;;2.92;2.40;;;;;;;;;;5007142;28;20061;-89
2021/06/27 10:46:43;;;;;;;3.15;2.70;;;;;;;;;;4989457;28;20088;-90
2021/06/27 10:49:30;;;;;;;;;;;;;;;;;;4976420;28;20468;-89
2021/06/27 10:52:16;;;;;;;4.20;2.53;;;;;;;;;;4992360;28;20000;-89
2021/06/27 10:55:13;;;;;;;3.38;2.42;;;;;;;;;;4983371;28;20041;-87
2021/06/27 10:57:59;;;;;;;3.40;2.35;;;;;;;;;;4993567;28;20682;-88
2021/06/27 11:00:53;;;;;;;2.45;2.25;;;;;;;;;;4983732;28;20026;-88
2021/06/27 11:03:43;;;;;;;2.83;2.22;;;;;;;;;;4992193;28;20093;-90
2021/06/27 11:06:36;;;;;;;2.28;2.08;;;;;;;;;;4986155;28;20050;-89
2021/06/27 11:09:26;;;;;;;3.50;2.20;;;;;;;;;;4996221;28;20105;-89
2021/06/27 11:12:15;;;;;;;4.07;2.33;;;;;;;;;;4990071;28;20026;-91
2021/06/27 11:15:14;;;;;;;4.28;2.75;;;;;;;;;;4988835;28;20104;-90
2021/06/27 11:18:10;;;;;;;3.65;2.30;;;;;;;;;;4994214;28;20088;-90
2021/06/27 11:20:55;;;;;;;2.80;2.40;;;;;;;;;;5002767;28;20033;-90
2021/06/27 11:23:48;;;;;;;2.72;2.35;;;;;;;;;;4988860;28;20380;-89
2021/06/27 11:26:39;;;;;;;2.75;2.20;;;;;;;;;;4987370;28;20033;-87
2021/06/27 11:29:30;;;;;;;2.55;2.22;;;;;;;;;;4992786;28;20097;-88
2021/06/27 11:32:15;;;;;;;2.95;2.28;;;;;;;;;;4987658;28;20030;-90
2021/06/27 11:35:01;;;;;;;3.08;2.00;;;;;;;;;;4996068;28;20503;-89
2021/06/27 11:37:46;;;;;;;2.25;1.95;;;;;;;;;;4992906;28;20399;-88
2021/06/27 11:40:45;;;;;;;1.95;1.85;;;;;;;;;;4992013;28;20476;-89
2021/06/27 11:43:49;;;;;;;2.42;2.20;;;;;;;;;;4977299;28;20060;-88
2021/06/27 11:46:34;;;;;;;5.18;1.90;;;;;;;;;;4978297;28;20108;-88
2021/06/27 11:49:26;;;;;;;2.50;2.05;;;;;;;;;;4995677;28;20018;-89
2021/06/27 11:52:17;;;;;;;2.33;2.10;;;;;;;;;;4992684;28;20108;-89
2021/06/27 11:55:05;;;;;;;2.40;2.03;;;;;;;;;;4993074;28;20030;-89
2021/06/27 12:01:30;;;;;;;2.53;2.33;;;;;;;;;;4932307;29;20031;-87
2021/06/27 12:12:04;;;;;;;3.05;2.40;;;;;;;;;;5081115;23;20059;-88
2021/06/27 12:14:49;;;;;;;2.63;1.90;;;;;;;;;;4987421;28;20018;-88
2021/06/27 12:18:07;;;;;;;;;;;;;;;;;;;;;
2021/06/27 12:21:29;;;;;;;;;;;;;;;;;;;;;
2021/06/27 12:28:34;;;;;;;2.70;2.20;;;;;;;;;;4932347;28;20043;-87
2021/06/27 12:31:32;;;;;;;5.18;1.92;;;;;;;;;;4942543;28;20113;-87
2021/06/27 12:34:33;;;;;;;;;;;;;;;;;;;;;
2021/06/27 12:48:20;;;;;;;3.78;2.28;;;;;;;;;;4987587;28;20109;-88
2021/06/27 12:51:33;;;;;;;2.50;2.28;;;;;;;;;;4991225;28;20026;-87
2021/06/27 12:54:38;;;;;;;;;;;;;;;;;;;;;
2021/06/27 12:58:08;;;;;;;3.72;2.55;;;;;;;;;;4992335;28;20034;-89
2021/06/27 13:04:29;;;;;;;3.63;2.60;;;;;;;;;;4903435;29;20091;-88
2021/06/27 13:07:24;;;;;;;3.58;2.30;;;;;;;;;;4992207;28;20013;-89
2021/06/27 13:10:22;;;;;;;4.95;2.22;;;;;;;;;;4992467;28;20049;-89
2021/06/27 13:13:08;;;;;;;4.45;1.98;;;;;;;;;;4975466;28;20022;-89
2021/06/27 13:15:54;;;;;;;2.63;1.90;;;;;;;;;;4978345;28;20560;-90
2021/06/27 13:18:44;;;;;;;2.45;2.05;;;;;;;;;;4976626;28;20176;-89
2021/06/27 13:21:30;;;;;;;5.72;3.72;;;;;;;;;;4975658;28;20022;-89
2021/06/27 13:24:29;;;;;;;5.47;4.18;;;;;;;;;;4979285;28;20029;-89
2021/06/27 13:27:17;;;;;;;5.97;3.33;;;;;;;;;;4977733;28;20026;-89
2021/06/27 13:30:11;;;;;;;10.27;5.03;;;;;;;;;;4982467;28;20026;-89
2021/06/27 13:33:54;;;;;;;2.72;2.17;;;;;;;;;;4983658;28;20034;-90
2021/06/27 13:36:41;;;;;;;3.53;2.45;;;;;;;;;;4910820;29;20613;-91
2021/06/27 13:39:37;;;;;;;4.22;2.40;;;;;;;;;;4943192;29;20457;-90
2021/06/27 13:42:27;;;;;;;2.25;2.05;;;;;;;;;;4968587;28;20294;-89
2021/06/27 13:45:20;;;;;;;2.47;1.90;;;;;;;;;;4973247;28;20021;-90
2021/06/27 13:48:38;;;;;;;2.45;1.90;;;;;;;;;;4939467;28;20029;-87
2021/06/27 13:51:41;;;;;;;2.90;2.17;;;;;;;;;;4948606;29;20070;-88
2021/06/27 13:54:29;;;;;;;4.47;2.35;;;;;;;;;;4974201;28;20041;-87
2021/06/27 13:57:17;;;;;;;2.35;2.15;;;;;;;;;;4967880;28;20025;-88
2021/06/27 14:00:23;;;;;;;4.30;2.58;;;;;;;;;;4977414;28;20049;-87
2021/06/27 14:03:28;;;;;;;2.65;2.20;;;;;;;;;;4978013;28;20092;-89
2021/06/27 14:06:15;;;;;;;3.33;2.35;;;;;;;;;;4969379;28;20072;-88
2021/06/27 14:09:29;;;;;;;;;;;;;;;;;;;;;
2021/06/27 14:12:53;;;;;;;2.90;2.08;;;;;;;;;;4972483;28;20041;-90
2021/06/27 14:16:03;;;;;;;;;;;;;;;;;;;;;
2021/06/27 14:19:15;;;;;;;2.67;1.88;;;;;;;;;;4953161;28;20407;-89
2021/06/27 14:22:21;;;;;;;3.58;2.05;;;;;;;;;;4987682;28;20056;-90
2021/06/27 14:25:21;;;;;;;2.30;2.10;;;;;;;;;;4987063;28;20026;-89
2021/06/27 14:28:06;;;;;;;2.40;2.17;;;;;;;;;;4991001;28;20036;-89
2021/06/27 14:34:33;;;;;;;2.40;2.20;;;;;;;;;;4967742;28;20030;-90
2021/06/27 14:37:21;;;;;;;3.08;2.05;;;;;;;;;;4959489;28;20030;-89
2021/06/27 14:40:18;;;;;;;2.72;2.22;;;;;;;;;;4985039;28;20030;-88
2021/06/27 14:43:13;;;;;;;2.63;2.40;;;;;;;;;;4991621;28;20072;-91
2021/06/27 14:45:59;;;;;;;6.32;2.65;;;;;;;;;;4988429;28;20018;-89
2021/06/27 14:48:47;;;;;;;2.85;2.50;;;;;;;;;;4982937;28;20031;-88
2021/06/27 14:52:16;;;;;;;4.83;2.23;;;;;;;;;;4993203;28;20472;-90
2021/06/27 14:54:52;;;;;;;5.57;2.70;;;;;;;;;;4986665;28;20056;-88
2021/06/27 14:57:38;;;;;;;4.88;2.78;;;;;;;;;;4991546;28;20495;-88
2021/06/27 15:03:57;;;;;;;2.50;2.30;;;;;;;;;;4944441;28;20035;-90
2021/06/27 15:06:44;;;;;;;3.92;2.42;;;;;;;;;;4996060;28;20022;-88
2021/06/27 15:09:30;;;;;;;2.58;2.33;;;;;;;;;;5005724;28;20057;-90
2021/06/27 15:12:22;;;;;;;2.65;2.20;;;;;;;;;;4993968;28;20089;-89
2021/06/27 15:15:10;;;;;;;3.35;2.42;;;;;;;;;;4989500;28;20681;-88
2021/06/27 15:17:58;;;;;;;6.35;2.35;;;;;;;;;;4992363;28;20137;-88
2021/06/27 15:21:07;;;;;;;3.45;2.50;;;;;;;;;;4983632;28;20030;-89
2021/06/27 15:56:50;;;;;;;4.03;2.80;;;;;;;;;;4722552;30;20115;-86
2021/06/27 15:59:36;;;;;;;6.85;3.33;;;;;;;;;;4828722;29;20102;-87
2021/06/27 16:02:21;;;;;;;8.57;4.30;;;;;;;;;;4934400;28;20070;-87
2021/06/27 16:05:12;;;;;;;7.80;3.35;;;;;;;;;;4941084;29;20215;-85
2021/06/27 16:07:57;;;;;;;3.40;3.10;;;;;;;;;;4944650;28;20228;-88
2021/06/27 16:10:43;;;;;;;5.72;2.75;;;;;;;;;;4987537;28;20065;-87
2021/06/27 16:13:29;;;;;;;6.60;2.83;;;;;;;;;;4982859;28;20029;-87
2021/06/27 16:16:16;;;;;;;4.82;3.20;;;;;;;;;;4982684;28;20018;-87
2021/06/27 16:19:04;;;;;;;4.47;3.05;;;;;;;;;;4987319;28;20027;-87
2021/06/27 16:21:50;;;;;;;6.22;3.28;;;;;;;;;;4989319;28;20397;-86
2021/06/27 16:24:36;;;;;;;4.93;3.00;;;;;;;;;;4986981;28;20049;-86
2021/06/27 16:27:22;;;;;;;4.00;3.00;;;;;;;;;;4995288;28;20028;-87
2021/06/27 16:30:09;;;;;;;6.07;3.45;;;;;;;;;;4987712;28;20186;-87
2021/06/27 16:32:54;;;;;;;4.88;3.10;;;;;;;;;;4986526;28;20045;-86
2021/06/27 16:35:40;;;;;;;4.68;2.95;;;;;;;;;;4984621;28;20066;-87
2021/06/27 16:38:25;;;;;;;8.45;3.58;;;;;;;;;;4986086;28;20033;-88
2021/06/27 16:41:10;;;;;;;11.15;6.85;;;;;;;;;;4983895;28;20026;-87
2021/06/27 16:43:56;;;;;;;17.48;10.30;;;;;;;;;;4986032;28;20414;-86
2021/06/27 16:46:43;;;;;;;6.57;4.55;;;;;;;;;;4987758;28;20022;-87
2021/06/27 16:49:35;;;;;;;4.65;3.33;;;;;;;;;;4984516;28;20078;-87
2021/06/27 16:52:20;;;;;;;5.25;3.83;;;;;;;;;;4984614;28;20023;-86
2021/06/27 16:55:06;;;;;;;4.95;3.80;;;;;;;;;;4980379;28;20167;-86
2021/06/27 16:57:51;;;;;;;4.90;3.38;;;;;;;;;;4986913;28;20380;-87
2021/06/27 17:00:37;;;;;;;5.93;3.65;;;;;;;;;;4967593;28;20385;-88
2021/06/27 17:03:22;;;;;;;4.63;3.00;;;;;;;;;;4983921;28;20077;-88
2021/06/27 17:06:12;;;;;;;5.68;3.05;;;;;;;;;;4981877;28;20023;-89
2021/06/27 17:08:58;;;;;;;3.40;3.00;;;;;;;;;;4986521;28;20101;-89
2021/06/27 17:11:44;;;;;;;4.60;2.65;;;;;;;;;;4991928;28;20050;-92
2021/06/27 17:14:33;;;;;;;5.90;3.00;;;;;;;;;;4991080;28;20025;-90
2021/06/27 17:17:19;;;;;;;4.32;3.38;;;;;;;;;;4985384;28;20252;-88
2021/06/27 17:20:04;;;;;;;6.05;3.22;;;;;;;;;;4981732;28;20030;-88
2021/06/27 17:22:50;;;;;;;5.22;3.28;;;;;;;;;;4984236;28;20053;-88
2021/06/27 17:25:35;;;;;;;9.07;4.85;;;;;;;;;;4985948;28;20025;-90
2021/06/27 17:28:22;;;;;;;6.03;4.00;;;;;;;;;;4983183;28;20372;-89
2021/06/27 17:31:09;;;;;;;6.40;4.53;;;;;;;;;;4985996;28;20030;-89
2021/06/27 17:33:56;;;;;;;5.75;3.35;;;;;;;;;;4988121;28;20024;-89
2021/06/27 17:36:42;;;;;;;8.18;3.70;;;;;;;;;;4981865;28;20025;-90
2021/06/27 17:39:29;;;;;;;7.00;3.63;;;;;;;;;;4987146;28;20463;-88
2021/06/27 17:42:17;;;;;;;4.90;3.60;;;;;;;;;;4987088;28;20389;-88
2021/06/27 17:45:03;;;;;;;4.82;3.72;;;;;;;;;;4991988;28;20029;-88
2021/06/27 17:47:51;;;;;;;7.60;3.28;;;;;;;;;;4966774;28;20456;-87
2021/06/27 17:50:36;;;;;;;4.72;3.53;;;;;;;;;;4983402;28;20026;-90
2021/06/27 17:53:22;;;;;;;5.03;3.20;;;;;;;;;;4983953;28;20621;-89
2021/06/27 17:56:17;;;;;;;7.35;3.47;;;;;;;;;;4975468;28;20462;-90
2021/06/27 17:59:08;;;;;;;5.80;3.30;;;;;;;;;;4987978;28;20023;-88
2021/06/27 18:01:55;;;;;;;5.28;3.55;;;;;;;;;;4985399;28;20492;-89
2021/06/27 18:04:41;;;;;;;5.25;3.22;;;;;;;;;;4988315;28;20053;-89
2021/06/27 18:07:26;;;;;;;4.20;2.90;;;;;;;;;;4979765;28;20018;-88
2021/06/27 18:10:11;;;;;;;7.70;3.45;;;;;;;;;;4988634;28;20065;-86
2021/06/27 18:12:57;;;;;;;10.90;3.58;;;;;;;;;;4971285;28;20123;-88
2021/06/27 18:15:42;;;;;;;5.13;2.97;;;;;;;;;;4974235;28;20101;-88
2021/06/27 18:18:50;;;;;;;5.32;2.83;;;;;;;;;;4975307;28;20034;-89
2021/06/27 18:21:44;;;;;;;6.40;3.08;;;;;;;;;;4940044;28;20434;-88
2021/06/27 18:24:51;;;;;;;8.13;3.92;;;;;;;;;;4970400;28;20049;-89
2021/06/27 18:34:52;;;;;;;8.88;3.83;;;;;;;;;;4878800;29;20395;-90
2021/06/27 18:38:23;;;;;;;8.45;3.83;;;;;;;;;;4893515;29;20024;-88
2021/06/27 18:41:05;;;;;;;6.78;3.30;;;;;;;;;;4937414;28;20168;-89
2021/06/27 18:43:50;;;;;;;4.80;3.15;;;;;;;;;;4974802;28;20050;-86
2021/06/27 18:46:35;;;;;;;4.68;3.60;;;;;;;;;;4966081;28;20375;-89
2021/06/27 18:49:22;;;;;;;5.03;3.88;;;;;;;;;;4978502;28;20030;-90
2021/06/27 18:52:07;;;;;;;5.40;3.40;;;;;;;;;;4986852;28;20101;-89
2021/06/27 18:54:53;;;;;;;6.63;3.83;;;;;;;;;;4977517;28;20252;-89
2021/06/27 18:57:41;;;;;;;4.22;3.83;;;;;;;;;;4982216;28;20026;-89
2021/06/27 19:00:27;;;;;;;6.80;3.50;;;;;;;;;;4981449;28;20025;-88
2021/06/27 19:03:14;;;;;;;5.45;3.53;;;;;;;;;;4980772;28;20018;-89
2021/06/27 19:21:06;;;;;;;;;;;;;;;;;;;;;
2021/06/27 19:27:28;;;;;;;6.35;4.03;;;;;;;;;;4685483;30;20080;-88
2021/06/27 19:30:34;;;;;;;;;;;;;;;;;;;;;
2021/06/27 19:33:23;;;;;;;7.72;3.67;;;;;;;;;;4798254;29;20051;-89
2021/06/27 19:36:09;;;;;;;8.68;4.93;;;;;;;;;;4853462;28;20423;-88
2021/06/27 19:38:55;;;;;;;8.43;3.35;;;;;;;;;;4982953;28;20010;-87
2021/06/27 19:41:40;;;;;;;6.15;3.60;;;;;;;;;;4977533;28;20480;-89
2021/06/27 19:44:28;;;;;;;8.77;4.10;;;;;;;;;;4996916;28;20022;-87
2021/06/27 19:47:13;;;;;;;11.07;3.33;;;;;;;;;;4977417;28;20022;-88
2021/06/27 19:49:59;;;;;;;8.35;4.13;;;;;;;;;;4979891;28;20351;-88
2021/06/27 19:52:54;;;;;;;8.48;3.70;;;;;;;;;;4994622;28;20468;-89
2021/06/27 19:58:46;;;;;;;6.18;3.60;;;;;;;;;;4973489;28;20030;-88
2021/06/27 20:01:31;;;;;;;4.13;3.50;;;;;;;;;;4990301;28;20017;-89
2021/06/27 20:04:17;;;;;;;6.13;4.07;;;;;;;;;;4982911;28;20620;-89
2021/06/27 20:07:10;;;;;;;9.50;3.80;;;;;;;;;;4992586;28;20595;-88
2021/06/27 20:09:55;;;;;;;4.60;3.65;;;;;;;;;;4987853;28;20018;-91
2021/06/27 20:12:51;;;;;;;;;;;;;;;;;;;;;
2021/06/27 20:15:43;;;;;;;8.85;3.83;;;;;;;;;;4977839;28;20535;-83
2021/06/27 20:18:29;;;;;;;6.22;3.47;;;;;;;;;;4973169;28;20041;-94
2021/06/27 20:21:14;;;;;;;7.13;3.72;;;;;;;;;;4974600;28;20030;-83
2021/06/27 20:24:00;;;;;;;5.28;3.83;;;;;;;;;;4974400;28;20015;-84
2021/06/27 20:26:45;;;;;;;8.98;3.65;;;;;;;;;;4979536;28;20052;-84
2021/06/27 20:29:31;;;;;;;9.05;4.13;;;;;;;;;;4973798;28;20041;-85
2021/06/27 20:32:16;;;;;;;5.78;3.65;;;;;;;;;;4958415;28;20035;-84
2021/06/27 20:35:02;;;;;;;5.50;3.50;;;;;;;;;;4981210;28;20467;-82
2021/06/27 20:37:47;;;;;;;10.50;4.35;;;;;;;;;;4970566;28;20116;-85
2021/06/27 20:40:32;;;;;;;8.05;3.78;;;;;;;;;;4978844;28;20098;-86
2021/06/27 20:43:18;;;;;;;4.13;3.47;;;;;;;;;;4974085;28;21826;-84
2021/06/27 20:46:03;;;;;;;5.80;4.00;;;;;;;;;;4958180;28;20130;-85
2021/06/27 20:48:48;;;;;;;6.60;4.10;;;;;;;;;;4963059;28;20080;-84
2021/06/27 20:51:35;;;;;;;7.90;4.05;;;;;;;;;;4977006;28;20121;-84
2021/06/27 20:54:23;;;;;;;5.60;3.97;;;;;;;;;;4974367;28;20023;-85
2021/06/27 20:57:08;;;;;;;7.18;3.70;;;;;;;;;;4971949;28;20524;-85
2021/06/27 20:59:54;;;;;;;8.18;4.60;;;;;;;;;;4970006;28;20450;-84
2021/06/27 21:02:39;;;;;;;6.90;4.50;;;;;;;;;;4973407;28;20015;-84
2021/06/27 21:05:24;;;;;;;6.72;4.38;;;;;;;;;;4969743;28;20499;-83
2021/06/27 21:08:10;;;;;;;6.28;4.75;;;;;;;;;;4973920;28;20152;-83
2021/06/27 21:10:55;;;;;;;8.40;4.78;;;;;;;;;;4971113;28;20026;-83
2021/06/27 21:13:40;;;;;;;6.03;4.22;;;;;;;;;;4980466;28;20042;-80
2021/06/27 21:16:25;;;;;;;9.25;4.82;;;;;;;;;;4985499;28;20022;-80
2021/06/27 21:19:11;;;;;;;6.50;4.80;;;;;;;;;;4986539;28;20030;-80
2021/06/27 21:21:56;;;;;;;8.15;5.07;;;;;;;;;;4984919;28;20036;-80
2021/06/27 21:24:41;;;;;;;9.05;4.53;;;;;;;;;;4986639;28;20026;-81
2021/06/27 21:27:26;;;;;;;9.98;4.70;;;;;;;;;;4993341;28;20436;-87
2021/06/27 21:37:07;;;;;;;6.80;4.03;;;;;;;;;;4996358;28;20029;-93
2021/06/27 21:40:26;;;;;;;5.60;4.20;;;;;;;;;;4991714;28;20014;-94
2021/06/27 21:53:01;;;;;;;7.43;4.90;;;;;;;;;;4909791;29;20039;-91
2021/06/27 21:55:46;;;;;;;7.78;4.75;;;;;;;;;;4954049;28;20018;-92
2021/06/27 21:58:43;;;;;;;7.68;4.40;;;;;;;;;;4965890;28;20069;-90
2021/06/27 22:01:36;;;;;;;7.40;4.45;;;;;;;;;;4962495;28;20034;-92
2021/06/27 22:04:47;;;;;;;6.38;4.68;;;;;;;;;;4960970;28;20312;-92
2021/06/27 22:07:38;;;;;;;8.18;5.22;;;;;;;;;;4953408;28;20031;-91
2021/06/27 22:13:45;;;;;;;7.25;5.10;;;;;;;;;;5004440;28;20120;-91
2021/06/27 22:16:43;;;;;;;9.20;4.38;;;;;;;;;;4984022;28;20073;-92
2021/06/27 22:19:58;;;;;;;8.98;4.65;;;;;;;;;;4985293;28;20033;-91
2021/06/27 22:50:45;;;;;;;;;;;;;;;;;;;;;
2021/06/27 22:54:32;;;;;;;;;;;;;;;;;;;;;
2021/06/27 23:01:44;;;;;;;5.15;3.80;;;;;;;;;;4834277;29;20033;-90
2021/06/27 23:05:16;;;;;;;5.15;3.85;;;;;;;;;;4933771;28;20428;-88
2021/06/27 23:08:13;;;;;;;5.40;3.60;;;;;;;;;;4989709;28;20464;-91
2021/06/27 23:29:48;;;;;;;;;;;;;;;;;;;;;
